Time;durP1;ratioP1;P1;durP2;ratioP2;P2;SDS_P1;SDS_P2;PMS_P1;PMS_P2;Temp;Humidity;BMP_temperature;BMP_pressure;BME280_temperature;BME280_humidity;BME280_pressure;Samples;Min_cycle;Max_cycle;Signal;HPM_P1;HPM_P2
2024/03/16 00:02:16;;;;;;;34.70;6.27;;;;;;;11.36;100.00;101411.41;4967360;28;20205;-68
2024/03/16 00:04:43;;;;;;;25.37;5.63;;;;;;;11.37;100.00;101413.06;4966888;28;20727;-68
2024/03/16 00:07:15;;;;;;;26.83;5.90;;;;;;;11.30;100.00;101403.09;4961878;28;21035;-68
2024/03/16 00:09:40;;;;;;;39.90;6.90;;;;;;;11.32;100.00;101402.91;4952230;28;20437;-68
2024/03/16 00:12:06;;;;;;;29.87;5.80;;;;;;;11.37;100.00;101408.56;4962274;28;20460;-68
2024/03/16 00:14:32;;;;;;;26.40;5.83;;;;;;;11.29;100.00;101416.72;4969484;28;20188;-68
2024/03/16 00:16:58;;;;;;;30.60;7.40;;;;;;;11.34;100.00;101429.56;4967481;28;20552;-68
2024/03/16 00:19:24;;;;;;;28.80;6.67;;;;;;;11.36;100.00;101423.00;4963607;28;20441;-68
2024/03/16 00:21:50;;;;;;;20.20;4.20;;;;;;;11.25;100.00;101416.28;4964810;28;20453;-68
2024/03/16 00:24:16;;;;;;;26.93;5.77;;;;;;;10.75;100.00;101360.72;4966080;28;20441;-68
2024/03/16 00:26:41;;;;;;;27.37;5.90;;;;;;;11.36;100.00;101422.16;4955397;28;20496;-68
2024/03/16 00:29:07;;;;;;;29.50;5.67;;;;;;;11.15;100.00;101398.78;4967857;28;20234;-68
2024/03/16 00:31:36;;;;;;;31.23;5.90;;;;;;;11.38;100.00;101431.69;4969649;28;20491;-68
2024/03/16 00:34:03;;;;;;;27.57;5.50;;;;;;;11.30;100.00;101421.06;4969040;28;20689;-68
2024/03/16 00:36:30;;;;;;;29.00;5.87;;;;;;;11.38;100.00;101423.63;4968369;28;20484;-68
2024/03/16 00:38:56;;;;;;;36.43;6.33;;;;;;;11.26;100.00;101419.78;4964578;28;20819;-68
2024/03/16 00:41:23;;;;;;;34.33;6.77;;;;;;;11.11;100.00;101416.28;4969316;28;20499;-68
2024/03/16 00:43:48;;;;;;;29.47;6.63;;;;;;;11.21;100.00;101447.19;4965449;28;20507;-68
2024/03/16 00:46:14;;;;;;;25.77;6.57;;;;;;;11.08;100.00;101406.78;4972686;28;20535;-68
2024/03/16 00:48:39;;;;;;;24.67;6.10;;;;;;;11.28;100.00;101415.03;4968698;28;20604;-68
2024/03/16 00:51:05;;;;;;;27.47;7.30;;;;;;;11.16;100.00;101397.75;4967209;28;20766;-68
2024/03/16 00:53:30;;;;;;;24.93;5.60;;;;;;;11.01;100.00;101373.63;4963014;28;20181;-68
2024/03/16 00:55:56;;;;;;;33.30;7.87;;;;;;;11.23;100.00;101409.44;4967344;28;20642;-68
2024/03/16 00:58:21;;;;;;;25.93;6.40;;;;;;;11.05;100.00;101346.25;4951353;28;20631;-68
2024/03/16 01:00:47;;;;;;;30.77;5.97;;;;;;;11.02;100.00;101373.47;4968004;28;20704;-68
2024/03/16 01:03:12;;;;;;;30.97;7.13;;;;;;;11.16;100.00;101400.44;4946962;28;20182;-68
2024/03/16 01:05:38;;;;;;;29.50;7.80;;;;;;;11.08;100.00;101359.28;4947137;28;20712;-68
2024/03/16 01:08:03;;;;;;;37.07;7.07;;;;;;;10.50;100.00;101277.03;4967287;28;20186;-68
2024/03/16 01:10:29;;;;;;;27.30;7.63;;;;;;;11.15;100.00;101358.53;4969854;28;20190;-69
2024/03/16 01:12:54;;;;;;;32.97;7.67;;;;;;;11.09;100.00;101349.38;4966187;28;20222;-68
2024/03/16 01:15:20;;;;;;;26.50;7.37;;;;;;;10.72;100.00;101313.63;4965237;28;20230;-68
2024/03/16 01:17:46;;;;;;;28.60;6.90;;;;;;;10.43;100.00;101223.31;4964037;28;20198;-68
2024/03/16 01:20:13;;;;;;;34.77;8.23;;;;;;;10.67;100.00;101238.25;4963613;28;20523;-68
2024/03/16 01:22:38;;;;;;;25.93;7.50;;;;;;;10.67;100.00;101242.78;4949703;28;20844;-68
2024/03/16 01:25:05;;;;;;;25.40;6.83;;;;;;;10.76;100.00;101236.28;4965402;28;20444;-68
2024/03/16 01:27:32;;;;;;;24.20;7.60;;;;;;;10.73;100.00;101248.25;4962927;28;20198;-67
2024/03/16 01:29:58;;;;;;;31.40;7.80;;;;;;;10.73;100.00;101258.97;4965856;28;20843;-68
2024/03/16 01:32:24;;;;;;;25.40;7.63;;;;;;;10.67;100.00;101208.72;4962500;28;20472;-69
2024/03/16 01:34:49;;;;;;;27.80;7.83;;;;;;;10.30;100.00;101145.41;4948850;28;20264;-68
2024/03/16 01:37:15;;;;;;;25.23;6.70;;;;;;;10.84;100.00;101207.47;4962810;28;20186;-69
2024/03/16 01:39:41;;;;;;;21.00;7.63;;;;;;;10.48;100.00;101180.69;4966203;28;20182;-68
2024/03/16 01:42:06;;;;;;;23.13;8.23;;;;;;;10.62;100.00;101179.81;4965621;28;20472;-69
2024/03/16 01:44:32;;;;;;;21.13;7.53;;;;;;;10.61;100.00;101166.56;4964312;28;20190;-69
2024/03/16 01:46:58;;;;;;;23.03;7.00;;;;;;;10.61;100.00;101163.88;4967210;28;20178;-69
2024/03/16 01:49:23;;;;;;;21.47;7.27;;;;;;;10.67;100.00;101173.03;4965026;28;20244;-69
2024/03/16 01:51:49;;;;;;;18.23;6.80;;;;;;;10.24;100.00;101117.50;4965355;28;20457;-69
2024/03/16 01:54:14;;;;;;;23.70;7.87;;;;;;;10.51;100.00;101134.72;4965790;28;20193;-69
2024/03/16 01:56:40;;;;;;;17.97;6.63;;;;;;;10.47;100.00;101151.38;4963754;28;20216;-68
2024/03/16 01:59:05;;;;;;;19.83;6.77;;;;;;;9.56;100.00;100953.50;4960154;28;20566;-69
2024/03/16 02:01:31;;;;;;;26.50;7.40;;;;;;;10.38;100.00;101097.03;4963543;28;20786;-68
2024/03/16 02:03:59;;;;;;;20.43;7.03;;;;;;;10.44;100.00;101100.78;4960244;28;20182;-68
2024/03/16 02:06:26;;;;;;;14.97;6.53;;;;;;;10.13;100.00;101112.63;4960744;28;20206;-68
2024/03/16 02:08:54;;;;;;;25.87;8.47;;;;;;;9.55;100.00;101007.28;4974093;28;20457;-69
2024/03/16 02:11:21;;;;;;;22.60;7.20;;;;;;;10.19;100.00;101152.91;4967412;28;21053;-69
2024/03/16 02:13:48;;;;;;;23.57;8.00;;;;;;;10.29;100.00;101151.78;4960690;28;20576;-68
2024/03/16 02:16:14;;;;;;;23.63;7.60;;;;;;;10.07;100.00;101108.84;4959890;28;20461;-68
2024/03/16 02:18:39;;;;;;;22.70;7.50;;;;;;;10.19;100.00;101158.25;4964779;28;20448;-68
2024/03/16 02:21:09;;;;;;;26.20;6.20;;;;;;;9.44;100.00;101104.97;4964751;28;20205;-68
2024/03/16 02:23:35;;;;;;;21.03;4.40;;;;;;;9.31;100.00;101086.03;4967375;28;21019;-69
2024/03/16 02:26:00;;;;;;;17.90;3.70;;;;;;;9.22;100.00;101185.13;4964034;28;20433;-68
2024/03/16 02:28:26;;;;;;;10.47;2.63;;;;;;;9.23;100.00;101194.84;4963167;28;20665;-68
2024/03/16 02:30:52;;;;;;;12.23;2.47;;;;;;;8.98;100.00;101220.97;4962859;28;20214;-68
2024/03/16 02:33:17;;;;;;;9.87;1.77;;;;;;;8.89;100.00;101247.97;4967812;28;20260;-68
2024/03/16 02:35:45;;;;;;;11.07;1.77;;;;;;;8.75;100.00;101214.78;4964290;28;20462;-69
2024/03/16 02:38:11;;;;;;;8.27;1.60;;;;;;;8.64;100.00;101226.72;4965546;28;20261;-68
2024/03/16 02:40:36;;;;;;;6.70;1.30;;;;;;;8.25;100.00;101192.81;4959949;28;20901;-69
2024/03/16 02:43:04;;;;;;;8.37;1.17;;;;;;;8.65;100.00;101236.44;4959639;28;20194;-69
2024/03/16 02:45:30;;;;;;;9.60;1.57;;;;;;;8.62;100.00;101230.56;4962912;28;20575;-69
2024/03/16 02:47:55;;;;;;;7.23;1.37;;;;;;;8.27;100.00;101203.31;4969040;28;20440;-68
2024/03/16 02:50:20;;;;;;;7.80;1.40;;;;;;;8.65;100.00;101246.25;4960988;28;20219;-68
2024/03/16 02:52:46;;;;;;;7.47;1.07;;;;;;;8.48;100.00;101238.34;4963865;28;20190;-68
2024/03/16 02:55:11;;;;;;;10.30;1.67;;;;;;;8.38;100.00;101201.13;4963256;28;20213;-68
2024/03/16 02:57:37;;;;;;;8.77;2.13;;;;;;;8.35;100.00;101241.53;4963193;28;20578;-67
2024/03/16 03:00:10;;;;;;;6.67;1.20;;;;;;;8.45;100.00;101225.34;4961060;28;20574;-68
2024/03/16 03:02:36;;;;;;;8.97;1.57;;;;;;;8.36;100.00;101245.03;4957733;28;20190;-68
2024/03/16 03:05:01;;;;;;;12.03;1.70;;;;;;;8.43;100.00;101235.38;4947735;28;20433;-68
2024/03/16 03:07:27;;;;;;;9.37;2.07;;;;;;;8.35;100.00;101236.19;4947062;28;20210;-68
2024/03/16 03:09:52;;;;;;;8.73;1.50;;;;;;;8.49;100.00;101252.53;4965881;28;20649;-68
2024/03/16 03:12:18;;;;;;;10.97;2.10;;;;;;;8.47;100.00;101260.72;4960819;28;20696;-68
2024/03/16 03:14:43;;;;;;;6.33;1.80;;;;;;;7.78;100.00;101172.34;4948583;28;20281;-68
2024/03/16 03:17:09;;;;;;;8.70;2.03;;;;;;;8.25;100.00;101272.19;4963706;28;20665;-68
2024/03/16 03:19:34;;;;;;;9.90;2.20;;;;;;;7.72;100.00;101151.63;4964870;28;20193;-68
2024/03/16 03:22:00;;;;;;;8.37;2.13;;;;;;;8.10;100.00;101230.16;4962572;28;20213;-68
2024/03/16 03:24:25;;;;;;;11.13;2.67;;;;;;;8.51;100.00;101288.81;4955834;28;20186;-69
2024/03/16 03:26:50;;;;;;;10.03;2.73;;;;;;;8.37;100.00;101249.41;4968354;28;20179;-68
2024/03/16 03:29:16;;;;;;;12.13;2.33;;;;;;;8.34;100.00;101217.69;4971746;28;20252;-69
2024/03/16 03:31:41;;;;;;;8.43;2.27;;;;;;;8.64;100.00;101314.13;4967215;28;20209;-69
2024/03/16 03:34:06;;;;;;;8.27;1.80;;;;;;;8.38;100.00;101308.03;4967765;28;20660;-68
2024/03/16 03:36:33;;;;;;;7.83;1.70;;;;;;;8.20;100.00;101231.78;4966984;28;20209;-69
2024/03/16 03:38:58;;;;;;;11.47;1.60;;;;;;;8.52;100.00;101316.38;4966536;28;20330;-68
2024/03/16 03:41:24;;;;;;;10.17;1.77;;;;;;;8.55;100.00;101300.78;4966261;28;20894;-68
2024/03/16 03:43:59;;;;;;;9.50;1.60;;;;;;;8.29;100.00;101278.81;4967852;28;20661;-68
2024/03/16 03:46:49;;;;;;;9.03;1.43;;;;;;;8.35;100.00;101327.06;4971434;28;20355;-68
2024/03/16 03:49:25;;;;;;;9.97;1.63;;;;;;;8.09;100.00;101292.59;4967738;28;20841;-68
2024/03/16 03:51:51;;;;;;;8.43;1.73;;;;;;;8.30;100.00;101337.47;4968212;28;20843;-67
2024/03/16 03:54:17;;;;;;;7.57;0.97;;;;;;;8.27;100.00;101323.59;4967399;28;20444;-68
2024/03/16 03:56:42;;;;;;;6.73;1.17;;;;;;;8.70;100.00;101341.00;4965914;28;20308;-68
2024/03/16 03:59:08;;;;;;;4.70;0.80;;;;;;;8.87;100.00;101352.47;4965201;28;20562;-68
2024/03/16 04:01:33;;;;;;;5.00;0.83;;;;;;;8.36;100.00;101328.75;4965462;28;20210;-68
2024/03/16 04:03:59;;;;;;;9.27;1.20;;;;;;;8.45;100.00;101390.25;4963163;28;20275;-68
2024/03/16 04:06:25;;;;;;;5.87;1.40;;;;;;;8.54;100.00;101378.53;4963119;28;20657;-68
2024/03/16 04:08:51;;;;;;;6.67;1.50;;;;;;;8.86;100.00;101404.31;4965814;28;20186;-68
2024/03/16 04:11:19;;;;;;;9.33;1.70;;;;;;;8.54;100.00;101410.63;4958357;28;20824;-68
2024/03/16 04:13:44;;;;;;;10.70;2.10;;;;;;;8.55;100.00;101417.63;4967501;28;20194;-68
2024/03/16 04:16:12;;;;;;;9.67;2.10;;;;;;;8.66;100.00;101427.13;4966267;28;20471;-69
2024/03/16 04:18:37;;;;;;;6.80;1.90;;;;;;;8.28;100.00;101425.00;4961931;28;20448;-68
2024/03/16 04:21:03;;;;;;;8.73;1.53;;;;;;;8.56;100.00;101451.38;4966498;28;20965;-69
2024/03/16 04:23:28;;;;;;;12.27;2.50;;;;;;;8.26;100.00;101436.84;4962464;28;20227;-69
2024/03/16 04:25:54;;;;;;;11.63;1.63;;;;;;;8.48;100.00;101462.09;4970871;28;20514;-68
2024/03/16 04:28:19;;;;;;;8.50;1.77;;;;;;;8.46;100.00;101448.06;4968597;28;20261;-68
2024/03/16 04:30:45;;;;;;;11.30;1.80;;;;;;;8.63;100.00;101481.78;4951094;28;20308;-69
2024/03/16 04:33:10;;;;;;;13.53;2.50;;;;;;;8.25;100.00;101437.88;4969267;28;20634;-69
2024/03/16 04:35:36;;;;;;;11.90;2.60;;;;;;;8.29;100.00;101487.31;4966126;28;20659;-67
2024/03/16 04:38:02;;;;;;;13.13;2.97;;;;;;;8.48;100.00;101505.72;4967329;28;20194;-68
2024/03/16 04:40:27;;;;;;;16.27;2.63;;;;;;;8.53;100.00;101527.44;4965509;28;20602;-68
2024/03/16 04:42:52;;;;;;;14.97;2.73;;;;;;;7.83;100.00;101453.06;4949892;28;20188;-68
2024/03/16 04:45:18;;;;;;;14.93;2.90;;;;;;;8.25;100.00;101572.34;4971556;28;20265;-68
2024/03/16 04:47:43;;;;;;;13.27;2.97;;;;;;;8.35;100.00;101583.69;4976772;28;20273;-68
2024/03/16 04:50:11;;;;;;;19.47;4.10;;;;;;;8.43;100.00;101596.25;4971203;28;20186;-68
2024/03/16 04:52:37;;;;;;;21.80;3.40;;;;;;;8.10;100.00;101572.16;4950045;28;20411;-68
2024/03/16 04:55:03;;;;;;;18.67;2.70;;;;;;;8.23;100.00;101625.09;4957056;28;20565;-68
2024/03/16 04:57:28;;;;;;;17.10;5.00;;;;;;;8.03;100.00;101621.06;4963295;28;20190;-68
2024/03/16 04:59:54;;;;;;;23.00;3.47;;;;;;;7.91;100.00;101610.66;4967360;28;21068;-68
2024/03/16 05:02:19;;;;;;;17.67;3.60;;;;;;;7.67;100.00;101599.91;4965317;28;20228;-68
2024/03/16 05:04:44;;;;;;;18.17;3.30;;;;;;;8.10;100.00;101620.25;4969218;28;20751;-69
2024/03/16 05:07:10;;;;;;;17.73;3.00;;;;;;;7.43;100.00;101515.22;4963315;28;20329;-68
2024/03/16 05:09:35;;;;;;;17.90;4.00;;;;;;;7.93;100.00;101656.75;4962902;28;20197;-68
2024/03/16 05:12:01;;;;;;;16.67;2.73;;;;;;;7.65;100.00;101588.53;4946956;28;20210;-68
2024/03/16 05:14:27;;;;;;;13.80;2.40;;;;;;;7.98;100.00;101701.69;4965224;28;20205;-68
2024/03/16 05:16:53;;;;;;;15.93;2.30;;;;;;;8.20;100.00;101755.56;4961403;28;20768;-68
2024/03/16 05:19:18;;;;;;;13.47;2.50;;;;;;;7.83;100.00;101738.84;4967047;28;20517;-68
2024/03/16 05:21:45;;;;;;;9.43;1.97;;;;;;;7.99;100.00;101844.13;4963453;28;20210;-68
2024/03/16 05:24:13;;;;;;;14.90;3.27;;;;;;;7.55;100.00;101900.19;4968086;28;20675;-68
2024/03/16 05:26:39;;;;;;;13.90;2.50;;;;;;;7.91;100.00;101968.63;4963878;28;21496;-68
2024/03/16 05:29:05;;;;;;;11.17;2.40;;;;;;;8.11;100.00;102019.25;4964530;28;20496;-69
2024/03/16 05:31:32;;;;;;;14.23;1.90;;;;;;;8.15;100.00;102068.72;4950507;28;20530;-68
2024/03/16 05:33:58;;;;;;;11.97;2.63;;;;;;;8.01;100.00;102117.31;4970391;28;20449;-69
2024/03/16 05:36:23;;;;;;;8.43;1.83;;;;;;;7.76;100.00;102172.31;4972094;28;20490;-69
2024/03/16 05:38:49;;;;;;;9.30;2.03;;;;;;;8.13;100.00;102178.44;4946916;28;20522;-68
2024/03/16 05:41:15;;;;;;;26.63;2.03;;;;;;;8.19;100.00;102208.22;4969764;28;20298;-68
2024/03/16 05:43:43;;;;;;;10.60;2.10;;;;;;;8.11;100.00;102230.38;4971966;28;20299;-68
2024/03/16 05:46:09;;;;;;;10.23;2.23;;;;;;;7.84;100.00;102209.78;4957796;28;20528;-68
2024/03/16 05:48:35;;;;;;;10.63;1.80;;;;;;;7.92;100.00;102229.44;4971225;28;20509;-69
2024/03/16 05:51:01;;;;;;;10.77;2.40;;;;;;;7.72;100.00;102194.97;4967490;28;20308;-68
2024/03/16 05:53:27;;;;;;;11.93;1.90;;;;;;;7.50;100.00;102143.63;4970270;28;20204;-69
2024/03/16 05:55:52;;;;;;;12.93;2.43;;;;;;;7.66;100.00;102084.22;4971241;28;20476;-68
2024/03/16 05:58:20;;;;;;;11.93;2.37;;;;;;;8.09;100.00;102165.53;4970647;28;20245;-69
2024/03/16 06:00:45;;;;;;;11.30;1.93;;;;;;;7.95;100.00;102115.25;4969174;28;20292;-68
2024/03/16 06:03:11;;;;;;;13.53;2.33;;;;;;;7.43;100.00;102025.03;4952381;28;20932;-68
2024/03/16 06:05:36;;;;;;;9.97;2.37;;;;;;;8.21;100.00;102142.94;4956872;28;20182;-68
2024/03/16 06:08:04;;;;;;;12.00;2.30;;;;;;;7.93;100.00;102112.75;4971697;28;20193;-68
2024/03/16 06:10:30;;;;;;;11.00;2.07;;;;;;;7.91;100.00;102018.56;4969353;28;20198;-68
2024/03/16 06:12:55;;;;;;;7.73;1.97;;;;;;;8.24;100.00;102149.81;4967060;28;20868;-68
2024/03/16 06:15:23;;;;;;;12.73;2.03;;;;;;;7.84;100.00;102106.47;4952867;28;20225;-68
2024/03/16 06:17:49;;;;;;;11.03;2.17;;;;;;;8.19;100.00;102101.31;4970129;28;20190;-68
2024/03/16 06:20:18;;;;;;;12.03;2.17;;;;;;;8.13;100.00;102106.28;4971081;28;20503;-69
2024/03/16 06:22:44;;;;;;;8.13;2.03;;;;;;;7.66;100.00;102060.19;4969706;28;20194;-68
2024/03/16 06:25:12;;;;;;;16.87;2.53;;;;;;;8.00;100.00;102073.75;4970892;28;20438;-68
2024/03/16 06:27:43;;;;;;;14.53;2.63;;;;;;;7.91;100.00;102048.78;4965863;28;20456;-68
2024/03/16 06:30:12;;;;;;;11.33;2.63;;;;;;;8.04;100.00;102092.97;4969365;28;20449;-68
2024/03/16 06:32:38;;;;;;;14.47;2.13;;;;;;;8.08;100.00;102091.69;4971092;28;20471;-69
2024/03/16 06:35:07;;;;;;;12.73;2.20;;;;;;;7.57;100.00;102005.00;4970904;28;20448;-68
2024/03/16 06:37:32;;;;;;;13.07;2.17;;;;;;;7.80;100.00;102053.50;4954317;28;20884;-68
2024/03/16 06:39:57;;;;;;;11.20;2.30;;;;;;;8.00;100.00;102118.31;4964436;28;20457;-68
2024/03/16 06:42:23;;;;;;;8.93;1.67;;;;;;;7.82;100.00;102103.09;4966049;28;20264;-67
2024/03/16 06:44:51;;;;;;;8.63;1.40;;;;;;;8.14;100.00;102132.00;4967356;28;20545;-68
2024/03/16 06:47:17;;;;;;;8.70;1.43;;;;;;;7.75;100.00;102099.34;4970072;28;21018;-68
2024/03/16 06:49:44;;;;;;;7.53;1.97;;;;;;;7.41;100.00;102086.59;4948312;28;20477;-68
2024/03/16 06:52:09;;;;;;;9.03;2.00;;;;;;;7.87;100.00;102135.56;4969645;28;20465;-69
2024/03/16 06:54:34;;;;;;;8.40;1.60;;;;;;;7.86;100.00;102133.03;4966640;28;20456;-68
2024/03/16 06:57:00;;;;;;;7.50;1.30;;;;;;;7.74;100.00;102135.06;4968027;28;20230;-68
2024/03/16 06:59:27;;;;;;;10.53;1.63;;;;;;;8.12;100.00;102135.81;4969026;28;20613;-68
2024/03/16 07:01:54;;;;;;;9.57;1.50;;;;;;;7.89;100.00;102112.19;4951861;28;20814;-68
2024/03/16 07:04:22;;;;;;;7.77;1.57;;;;;;;8.36;100.00;102167.31;4968322;28;20445;-69
2024/03/16 07:06:47;;;;;;;8.80;1.80;;;;;;;8.10;100.00;102114.63;4968350;28;20437;-69
2024/03/16 07:09:13;;;;;;;17.30;1.90;;;;;;;7.78;100.00;102128.44;4953858;28;20950;-68
2024/03/16 07:11:39;;;;;;;11.37;1.87;;;;;;;8.12;100.00;102154.53;4967524;28;20225;-68
2024/03/16 07:14:04;;;;;;;7.57;1.40;;;;;;;8.15;100.00;102136.34;4978189;28;20476;-69
2024/03/16 07:16:30;;;;;;;7.60;1.47;;;;;;;7.99;100.00;102164.75;4967463;28;20281;-68
2024/03/16 07:18:55;;;;;;;10.20;1.73;;;;;;;7.85;100.00;102164.25;4969156;28;20656;-68
2024/03/16 07:21:21;;;;;;;12.20;1.97;;;;;;;7.97;100.00;102106.09;4971596;28;20259;-68
2024/03/16 07:23:48;;;;;;;7.17;1.20;;;;;;;8.15;100.00;102119.47;4965856;28;20193;-68
2024/03/16 07:26:14;;;;;;;10.30;2.03;;;;;;;7.62;100.00;102089.03;4962845;28;20433;-69
2024/03/16 07:28:39;;;;;;;9.03;1.60;;;;;;;8.46;100.00;102205.56;4951727;28;20440;-69
2024/03/16 07:31:05;;;;;;;8.90;1.80;;;;;;;7.76;100.00;102169.66;4949729;28;20249;-69
2024/03/16 07:33:30;;;;;;;12.03;2.10;;;;;;;7.96;100.00;102189.94;4950159;28;20189;-68
2024/03/16 07:35:56;;;;;;;9.63;1.60;;;;;;;6.19;100.00;101955.06;4987889;23;20237;-83
2024/03/16 07:38:21;;;;;;;9.60;1.40;;;;;;;5.30;100.00;101766.25;4968186;28;20277;-84
2024/03/16 07:40:47;;;;;;;8.97;1.30;;;;;;;7.25;100.00;102049.03;4966683;28;20632;-83
2024/03/16 07:43:13;;;;;;;7.57;1.30;;;;;;;8.22;100.00;102250.72;4948429;28;20541;-82
2024/03/16 07:45:42;;;;;;;8.50;1.40;;;;;;;5.56;100.00;101850.81;4947039;28;20183;-83
2024/03/16 07:48:08;;;;;;;9.10;1.27;;;;;;;6.26;100.00;101926.84;4954050;28;20446;-83
2024/03/16 07:50:37;;;;;;;6.57;1.23;;;;;;;5.26;100.00;101835.81;4953548;28;20819;-82
2024/03/16 07:53:06;;;;;;;7.07;1.50;;;;;;;5.12;100.00;101784.75;4948897;28;20635;-82
2024/03/16 07:55:31;;;;;;;9.57;1.90;;;;;;;6.95;100.00;102116.81;4933067;28;20466;-82
2024/03/16 07:57:56;;;;;;;6.50;1.37;;;;;;;6.94;100.00;102051.97;4954072;28;20450;-82
2024/03/16 08:00:23;;;;;;;7.43;1.67;;;;;;;4.59;100.00;101761.16;4933661;28;20183;-82
2024/03/16 08:02:49;;;;;;;7.00;1.30;;;;;;;7.27;100.00;102139.63;4955258;28;20839;-81
2024/03/16 08:05:17;;;;;;;6.27;1.30;;;;;;;5.35;100.00;101793.28;4951271;28;20427;-81
2024/03/16 08:07:47;;;;;;;10.37;1.57;;;;;;;5.31;100.00;101791.84;4952811;28;20187;-80
2024/03/16 08:10:13;;;;;;;12.63;1.60;;;;;;;6.94;100.00;102032.44;4934040;29;20443;-81
2024/03/16 08:12:39;;;;;;;7.60;1.43;;;;;;;5.98;100.00;101885.94;4949498;28;21162;-80
2024/03/16 08:15:08;;;;;;;8.80;1.50;;;;;;;7.03;100.00;102076.94;4934456;28;20442;-79
2024/03/16 08:17:33;;;;;;;9.87;1.83;;;;;;;7.08;100.00;102090.66;4951658;28;20529;-80
2024/03/16 08:20:00;;;;;;;9.20;2.10;;;;;;;6.67;100.00;102023.38;4954289;28;20517;-79
2024/03/16 08:22:25;;;;;;;9.63;1.70;;;;;;;6.62;100.00;101920.81;4940290;28;20735;-79
2024/03/16 08:24:52;;;;;;;12.23;2.00;;;;;;;6.15;100.00;101883.53;4935161;29;20534;-79
2024/03/16 08:27:17;;;;;;;12.33;2.00;;;;;;;6.60;100.00;101912.16;4950189;28;20695;-79
2024/03/16 08:29:43;;;;;;;12.17;2.23;;;;;;;6.15;100.00;101867.56;4955283;28;20439;-80
2024/03/16 08:32:11;;;;;;;14.30;2.30;;;;;;;5.47;100.00;101716.78;4951890;28;20242;-80
2024/03/16 08:34:37;;;;;;;14.33;2.10;;;;;;;7.30;100.00;102046.75;4940329;28;20462;-80
2024/03/16 08:37:03;;;;;;;8.90;2.30;;;;;;;5.15;100.00;101728.59;4953138;28;20469;-80
2024/03/16 08:39:31;;;;;;;10.73;2.07;;;;;;;6.46;100.00;101860.16;4954643;28;20214;-80
2024/03/16 08:41:56;;;;;;;12.23;2.00;;;;;;;7.32;100.00;102028.78;4943126;29;20834;-81
2024/03/16 08:44:22;;;;;;;12.40;2.37;;;;;;;5.35;100.00;101726.75;4959131;28;20439;-80
2024/03/16 08:46:47;;;;;;;13.10;2.13;;;;;;;7.85;100.00;102153.56;4940877;28;20195;-81
2024/03/16 08:49:13;;;;;;;14.13;2.40;;;;;;;6.69;100.00;101970.75;4939139;29;20229;-80
2024/03/16 08:51:39;;;;;;;8.70;1.67;;;;;;;6.59;100.00;101945.13;4936620;28;20215;-79
2024/03/16 08:54:05;;;;;;;13.10;2.23;;;;;;;5.66;100.00;101828.50;4936364;29;20187;-79
2024/03/16 08:56:33;;;;;;;8.57;1.70;;;;;;;6.16;100.00;101790.13;4934603;28;20848;-78
2024/03/16 08:59:03;;;;;;;13.70;1.50;;;;;;;7.41;100.00;102021.72;4949752;28;20505;-78
2024/03/16 09:01:28;;;;;;;11.90;2.10;;;;;;;5.17;100.00;101667.28;4949324;28;20466;-79
2024/03/16 09:03:54;;;;;;;7.00;1.37;;;;;;;6.81;100.00;101954.59;4934484;29;20809;-79
2024/03/16 09:06:19;;;;;;;7.77;1.23;;;;;;;7.47;100.00;102078.00;4934169;28;20219;-79
2024/03/16 09:08:45;;;;;;;7.13;1.53;;;;;;;7.42;100.00;102082.09;4933990;29;20195;-79
2024/03/16 09:11:11;;;;;;;8.83;1.30;;;;;;;6.95;100.00;101943.44;4934055;29;20202;-79
2024/03/16 09:13:36;;;;;;;8.93;1.63;;;;;;;7.83;100.00;102082.56;4932240;28;20198;-79
2024/03/16 09:16:05;;;;;;;7.20;1.20;;;;;;;6.84;100.00;101949.78;4946315;28;20553;-78
2024/03/16 09:18:35;;;;;;;9.03;1.47;;;;;;;7.33;100.00;102128.38;4952223;28;20218;-78
2024/03/16 09:21:03;;;;;;;9.23;1.63;;;;;;;7.24;100.00;102021.50;4933817;28;20790;-80
2024/03/16 09:23:28;;;;;;;10.43;1.37;;;;;;;6.62;100.00;101902.16;4952549;28;20553;-78
2024/03/16 09:25:54;;;;;;;11.30;2.13;;;;;;;6.44;100.00;101902.94;4933729;28;20506;-78
2024/03/16 09:28:20;;;;;;;9.07;1.63;;;;;;;6.91;100.00;101958.88;4951673;28;20206;-79
2024/03/16 09:30:48;;;;;;;9.50;2.00;;;;;;;8.62;100.00;102228.09;4952730;28;20823;-77
2024/03/16 09:33:15;;;;;;;7.93;1.43;;;;;;;6.32;100.00;101856.97;4944741;28;21033;-75
2024/03/16 09:35:41;;;;;;;11.40;2.50;;;;;;;8.43;100.00;102205.03;4928643;28;20498;-75
2024/03/16 09:38:07;;;;;;;11.00;2.40;;;;;;;7.18;100.00;102015.91;4949630;28;20438;-76
2024/03/16 09:40:33;;;;;;;11.23;2.20;;;;;;;5.73;100.00;101823.47;4949537;28;20506;-76
2024/03/16 09:43:00;;;;;;;11.27;1.90;;;;;;;6.06;100.00;101821.31;4930219;28;20663;-76
2024/03/16 09:45:28;;;;;;;12.43;2.17;;;;;;;7.42;100.00;102082.09;4947412;28;20476;-76
2024/03/16 09:47:55;;;;;;;15.57;2.30;;;;;;;7.33;100.00;102083.00;4947421;28;20454;-77
2024/03/16 09:50:23;;;;;;;10.10;1.60;;;;;;;6.18;100.00;101888.56;4947205;28;20538;-76
2024/03/16 09:52:49;;;;;;;7.10;2.10;;;;;;;7.16;100.00;101943.19;4938150;28;20635;-76
2024/03/16 09:55:15;;;;;;;10.93;1.60;;;;;;;6.22;100.00;101868.63;4945120;28;20477;-76
2024/03/16 09:57:43;;;;;;;14.60;1.97;;;;;;;6.98;100.00;101989.31;4936456;28;20450;-77
2024/03/16 10:00:10;;;;;;;8.77;1.30;;;;;;;7.23;100.00;102080.34;4939696;28;20435;-76
2024/03/16 10:02:38;;;;;;;9.20;2.03;;;;;;;6.74;100.00;101964.97;4946106;28;20462;-77
2024/03/16 10:05:11;;;;;;;11.80;1.83;;;;;;;8.01;100.00;102210.84;4946565;28;20896;-76
2024/03/16 10:07:37;;;;;;;8.17;1.73;;;;;;;8.81;100.00;102257.38;4944210;28;20826;-76
2024/03/16 10:10:03;;;;;;;11.40;2.47;;;;;;;6.83;100.00;101988.13;4926739;29;20447;-76
2024/03/16 10:12:29;;;;;;;13.07;2.00;;;;;;;7.10;100.00;102098.53;4933596;28;20541;-76
2024/03/16 10:15:19;;;;;;;9.83;1.57;;;;;;;9.56;100.00;102397.13;4928780;28;20210;-76
2024/03/16 10:17:45;;;;;;;7.17;1.10;;;;;;;8.60;100.00;102228.25;4947860;28;20285;-76
2024/03/16 10:20:15;;;;;;;13.73;2.07;;;;;;;6.70;100.00;101983.09;4946850;28;20445;-78
2024/03/16 10:22:48;;;;;;;13.13;2.63;;;;;;;7.20;100.00;102051.28;4941265;28;21057;-72
2024/03/16 10:25:18;;;;;;;9.30;1.70;;;;;;;7.92;100.00;102210.75;4940011;28;20525;-73
2024/03/16 10:27:44;;;;;;;13.30;1.93;;;;;;;6.46;100.00;101903.63;4942067;28;20499;-73
2024/03/16 10:30:13;;;;;;;12.53;1.33;;;;;;;8.67;100.00;102183.84;4942601;28;20866;-75
2024/03/16 10:32:49;;;;;;;14.40;1.93;;;;;;;9.83;100.00;102427.50;4944292;28;20494;-76
2024/03/16 10:35:18;;;;;;;12.27;1.97;;;;;;;7.21;100.00;102028.97;4943921;28;20457;-72
2024/03/16 10:37:45;;;;;;;12.53;2.07;;;;;;;6.60;100.00;101913.00;4944567;28;20454;-72
2024/03/16 10:40:16;;;;;;;11.83;1.80;;;;;;;7.23;100.00;102016.28;4945742;28;20443;-72
2024/03/16 10:42:50;;;;;;;10.07;1.90;;;;;;;10.06;100.00;102443.91;4941465;28;20466;-72
2024/03/16 10:45:17;;;;;;;11.13;1.83;;;;;;;9.55;100.00;102416.06;4941111;28;20443;-72
2024/03/16 10:47:55;;;;;;;12.80;2.30;;;;;;;9.27;100.00;102392.84;4942891;28;20482;-73
2024/03/16 10:50:24;;;;;;;11.60;2.80;;;;;;;9.93;100.00;102447.84;4941659;28;20521;-73
2024/03/16 10:52:51;;;;;;;17.97;3.03;;;;;;;9.45;100.00;102454.44;4943799;28;20513;-75
2024/03/16 10:55:25;;;;;;;11.33;1.93;;;;;;;9.51;100.00;102443.13;4943870;28;20453;-74
2024/03/16 10:57:54;;;;;;;14.53;2.20;;;;;;;9.13;100.00;102400.56;4942489;28;20852;-75
2024/03/16 11:00:26;;;;;;;15.53;3.23;;;;;;;9.43;100.00;102487.72;4944779;28;20450;-75
2024/03/16 11:03:36;;;;;;;13.03;2.43;;;;;;;9.34;100.00;102510.06;4944495;28;20549;-75
2024/03/16 11:06:10;;;;;;;15.80;2.43;;;;;;;9.19;100.00;102515.91;4940968;28;20447;-75
2024/03/16 11:08:41;;;;;;;11.20;1.70;;;;;;;9.53;100.00;102512.63;4945262;28;20525;-75
2024/03/16 11:11:10;;;;;;;10.80;1.93;;;;;;;9.21;100.00;102519.28;4940361;28;21002;-74
2024/03/16 11:13:36;;;;;;;11.07;2.00;;;;;;;8.43;100.00;102390.34;4944023;28;20945;-74
2024/03/16 11:16:32;;;;;;;10.50;2.10;;;;;;;8.84;100.00;102406.91;4941493;28;20509;-74
2024/03/16 11:19:07;;;;;;;9.70;2.20;;;;;;;9.20;100.00;102471.22;4945231;28;20256;-74